Flight Track Log - Related Links

Times and Time Zones

All times are in EDT time to prevent confusion due to time zone crossing. See the CES2280 flight status page for this flight to view local times or setup timezone preferences in your user account.

Time Position Orientation Groundspeed Altitude Reporting Facility
EDT Latitude Longitude Course Direction KTS MPH feet Rate Location/Type
Tue 08:42:00 AM 36.4813 96.8581 87° East  Level Estimated
Tue 08:43:00 AM 36.4852 96.9878 88° East  Level Estimated
Tue 08:44:00 AM 36.4890 97.1174 88° East  Level Estimated
Tue 08:45:00 AM 36.4926 97.2471 88° East  Level Estimated
Tue 08:46:00 AM 36.4960 97.3767 88° East  Level Estimated
Tue 08:47:00 AM 36.4994 97.5064 88° East  Level Estimated
Tue 08:48:00 AM 36.5026 97.6361 88° East  Level Estimated
Tue 08:49:00 AM 36.5056 97.7658 88° East  Level Estimated
Tue 08:50:00 AM 36.5085 97.8955 88° East  Level Estimated
Tue 08:51:00 AM 36.5113 98.0252 88° East  Level Estimated
Tue 08:52:00 AM 36.5139 98.1550 89° East  Level Estimated
Tue 08:53:00 AM 36.5164 98.2847 89° East  Level Estimated
Tue 08:54:00 AM 36.5188 98.4145 89° East  Level Estimated
Tue 08:55:00 AM 36.5210 98.5442 89° East  Level Estimated
Tue 08:56:00 AM 36.5230 98.6740 89° East  Level Estimated
Tue 08:57:00 AM 36.5250 98.8037 89° East  Level Estimated
Tue 08:58:00 AM 36.5268 98.9335 89° East  Level Estimated
Tue 08:59:00 AM 36.5284 99.0633 89° East  Level Estimated
Tue 09:00:00 AM 36.5299 99.1931 89° East  Level Estimated
Tue 09:01:00 AM 36.5313 99.3229 89° East  Level Estimated
Tue 09:02:00 AM 36.5325 99.4527 89° East  Level Estimated
Tue 09:03:00 AM 36.5336 99.5825 89° East  Level Estimated
Tue 09:04:00 AM 36.5345 99.7123 89° East  Level Estimated
Tue 09:05:00 AM 36.5353 99.8421 90° East  Level Estimated
Tue 09:06:00 AM 36.5360 99.9719 90° East  Level Estimated
Tue 09:07:00 AM 36.5365 100.1017 90° East  Level Estimated
Tue 09:08:00 AM 36.5369 100.2315 90° East  Level Estimated
Tue 09:09:00 AM 36.5371 100.3613 90° East  Level Estimated
Tue 09:10:00 AM 36.5372 100.4911 90° East  Level Estimated
Tue 09:11:00 AM 36.5372 100.6210 90° East  Level Estimated
Tue 09:12:00 AM 36.5370 100.7508 90° East  Level Estimated
Tue 09:13:00 AM 36.5367 100.8806 90° East  Level Estimated
Tue 09:14:00 AM 36.5362 101.0104 90° East  Level Estimated
Tue 09:15:00 AM 36.5356 101.1402 90° East  Level Estimated
Tue 09:16:00 AM 36.5349 101.2700 90° East  Level Estimated
Tue 09:17:00 AM 36.5340 101.3998 90° East  Level Estimated
Tue 09:18:00 AM 36.5329 101.5296 91° East  Level Estimated
Tue 09:19:00 AM 36.5316 101.6810 91° East  Level Estimated
Tue 09:20:00 AM 36.5300 101.8325 91° East  Level Estimated
Tue 09:21:00 AM 36.5282 101.9839 91° East  Level Estimated
Tue 09:22:00 AM 36.5275 102.0428 91° East  Level Estimated
Tue 09:23:00 AM 36.5275 102.0428 270° West  Level Estimated
Tue 09:24:00 AM 36.5275 102.0428 270° West  Level Estimated
Tue 09:25:00 AM 36.5275 102.0428 270° West  Level Estimated
Tue 09:26:00 AM 36.5275 102.0428 270° West  Level Estimated
Tue 09:27:00 AM 36.5275 102.0428 270° West  Level Estimated
Tue 09:28:00 AM 36.5275 102.0428 270° West  Level Estimated
Tue 09:29:00 AM 36.5275 102.0428 270° West  Level Estimated
Tue 09:30:00 AM 36.5275 102.0428 270° West  Level Estimated

Login

Don't have an account? Register now (free) for customized features, flight alerts, and more!